Time;durP1;ratioP1;P1;durP2;ratioP2;P2;SDS_P1;SDS_P2;PMS_P1;PMS_P2;Temp;Humidity;BMP_temperature;BMP_pressure;BME280_temperature;BME280_humidity;BME280_pressure;Samples;Min_cycle;Max_cycle;Signal;HPM_P1;HPM_P2
2021/06/11 00:00:48;;;;;;;13.62;10.88;;;;;;;;;;4420369;32;20060;-75
2021/06/11 00:03:14;;;;;;;12.15;10.75;;;;;;;;;;4427579;32;20037;-74
2021/06/11 00:05:41;;;;;;;11.38;10.07;;;;;;;;;;4431142;32;20101;-80
2021/06/11 00:08:07;;;;;;;13.50;10.38;;;;;;;;;;4432054;32;20087;-75
2021/06/11 00:10:34;;;;;;;13.23;10.32;;;;;;;;;;4431415;32;20056;-74
2021/06/11 00:13:00;;;;;;;11.48;9.95;;;;;;;;;;4432049;32;20042;-75
2021/06/11 00:15:27;;;;;;;11.60;9.88;;;;;;;;;;4431416;32;20069;-74
2021/06/11 00:17:54;;;;;;;13.77;10.80;;;;;;;;;;4432251;32;20045;-74
2021/06/11 00:20:20;;;;;;;12.10;10.90;;;;;;;;;;4430190;32;20088;-74
2021/06/11 00:22:47;;;;;;;11.10;9.90;;;;;;;;;;4431181;32;20069;-74
2021/06/11 00:25:15;;;;;;;10.55;9.65;;;;;;;;;;4429820;32;20095;-74
2021/06/11 00:27:41;;;;;;;11.63;10.23;;;;;;;;;;4432348;32;20425;-75
2021/06/11 00:30:08;;;;;;;11.98;10.77;;;;;;;;;;4430228;32;20068;-74
2021/06/11 00:32:35;;;;;;;13.18;10.48;;;;;;;;;;4431677;32;20053;-74
2021/06/11 00:35:01;;;;;;;12.05;10.13;;;;;;;;;;4433207;32;20115;-74
2021/06/11 00:37:27;;;;;;;23.23;9.93;;;;;;;;;;4432420;32;20030;-74
2021/06/11 00:39:53;;;;;;;10.10;9.00;;;;;;;;;;4430925;32;20445;-74
2021/06/11 00:42:20;;;;;;;11.18;9.98;;;;;;;;;;4431110;32;20038;-74
2021/06/11 00:44:46;;;;;;;11.23;9.98;;;;;;;;;;4442609;32;20413;-76
2021/06/11 00:47:12;;;;;;;15.05;9.40;;;;;;;;;;4432671;32;20060;-74
2021/06/11 00:49:38;;;;;;;13.90;9.63;;;;;;;;;;4430296;32;20065;-74
2021/06/11 00:52:06;;;;;;;10.75;9.65;;;;;;;;;;4431001;32;20057;-74
2021/06/11 00:54:32;;;;;;;11.05;9.85;;;;;;;;;;4431207;32;20060;-74
2021/06/11 00:56:58;;;;;;;10.98;9.85;;;;;;;;;;4432061;32;20108;-74
2021/06/11 00:59:25;;;;;;;10.57;9.48;;;;;;;;;;4430801;32;20106;-76
2021/06/11 01:01:51;;;;;;;10.25;9.25;;;;;;;;;;4430982;32;20034;-74
2021/06/11 01:04:17;;;;;;;12.85;7.90;;;;;;;;;;4430761;32;20097;-74
2021/06/11 01:06:44;;;;;;;12.50;10.68;;;;;;;;;;4431340;32;20033;-74
2021/06/11 01:09:11;;;;;;;10.98;8.85;;;;;;;;;;4431288;32;20095;-75
2021/06/11 01:11:38;;;;;;;10.43;8.15;;;;;;;;;;4430130;32;20069;-75
2021/06/11 01:14:05;;;;;;;12.20;8.90;;;;;;;;;;4429337;32;20091;-74
2021/06/11 01:16:31;;;;;;;9.88;9.00;;;;;;;;;;4431194;32;20056;-73
2021/06/11 01:18:58;;;;;;;12.90;9.00;;;;;;;;;;4431433;32;20064;-74
2021/06/11 01:21:26;;;;;;;10.15;8.25;;;;;;;;;;4431506;32;20512;-74
2021/06/11 01:24:16;;;;;;;12.93;9.02;;;;;;;;;;4430942;32;20121;-76
2021/06/11 01:26:53;;;;;;;17.15;9.05;;;;;;;;;;4430644;32;20068;-74
2021/06/11 01:29:24;;;;;;;12.63;9.10;;;;;;;;;;4431830;32;20711;-74
2021/06/11 01:31:53;;;;;;;9.82;8.50;;;;;;;;;;4430817;32;20083;-79
2021/06/11 01:34:27;;;;;;;10.52;9.43;;;;;;;;;;4432472;32;20931;-73
2021/06/11 01:36:55;;;;;;;13.62;8.02;;;;;;;;;;4429162;32;20037;-74
2021/06/11 01:39:22;;;;;;;10.18;9.02;;;;;;;;;;4430774;32;20046;-75
2021/06/11 01:41:50;;;;;;;10.27;9.20;;;;;;;;;;4430694;32;20041;-75
2021/06/11 01:44:18;;;;;;;10.07;8.20;;;;;;;;;;4430612;32;20547;-76
2021/06/11 01:46:44;;;;;;;10.02;7.70;;;;;;;;;;4430623;32;20037;-74
2021/06/11 01:49:11;;;;;;;9.68;8.68;;;;;;;;;;4430509;32;20406;-73
2021/06/11 01:51:38;;;;;;;12.23;8.52;;;;;;;;;;4431013;32;20092;-75
2021/06/11 01:54:05;;;;;;;12.43;8.48;;;;;;;;;;4432080;32;20033;-85
2021/06/11 01:56:31;;;;;;;11.77;8.82;;;;;;;;;;4430432;32;20069;-76
2021/06/11 01:58:58;;;;;;;13.35;8.65;;;;;;;;;;4431837;32;20082;-74
2021/06/11 02:01:24;;;;;;;9.45;7.68;;;;;;;;;;4430736;32;20034;-74
2021/06/11 02:03:52;;;;;;;9.05;8.25;;;;;;;;;;4430211;32;20030;-74
2021/06/11 02:06:20;;;;;;;11.35;8.40;;;;;;;;;;4430765;32;20119;-74
2021/06/11 02:08:47;;;;;;;9.02;7.15;;;;;;;;;;4430187;32;20084;-75
2021/06/11 02:11:14;;;;;;;9.13;8.23;;;;;;;;;;4430868;32;20670;-80
2021/06/11 02:13:42;;;;;;;11.12;8.45;;;;;;;;;;4429913;32;20723;-78
2021/06/11 02:16:09;;;;;;;9.38;8.45;;;;;;;;;;4430691;32;20033;-76
2021/06/11 02:18:35;;;;;;;9.82;8.10;;;;;;;;;;4431766;32;20060;-74
2021/06/11 02:21:09;;;;;;;10.70;7.95;;;;;;;;;;4430915;32;20053;-74
2021/06/11 02:23:35;;;;;;;12.05;8.80;;;;;;;;;;4428286;32;20086;-75
2021/06/11 02:26:02;;;;;;;8.38;7.57;;;;;;;;;;4431902;32;20034;-75
2021/06/11 02:28:29;;;;;;;10.52;7.57;;;;;;;;;;4429746;32;20065;-74
2021/06/11 02:30:57;;;;;;;9.98;8.32;;;;;;;;;;4430699;32;20034;-75
2021/06/11 02:33:23;;;;;;;11.45;8.68;;;;;;;;;;4431449;32;20046;-74
2021/06/11 02:35:49;;;;;;;9.30;8.32;;;;;;;;;;4428807;32;20045;-75
2021/06/11 02:38:15;;;;;;;11.25;8.88;;;;;;;;;;4429680;32;20037;-80
2021/06/11 02:40:42;;;;;;;11.88;9.00;;;;;;;;;;4429993;32;20041;-74
2021/06/11 02:43:10;;;;;;;8.82;7.68;;;;;;;;;;4430350;32;20038;-74
2021/06/11 02:46:00;;;;;;;14.50;9.57;;;;;;;;;;4430659;32;20068;-74
2021/06/11 02:48:35;;;;;;;10.43;9.18;;;;;;;;;;4420548;32;20045;-75
2021/06/11 02:51:10;;;;;;;12.40;9.70;;;;;;;;;;4430198;32;20455;-76
2021/06/11 02:53:37;;;;;;;12.15;9.13;;;;;;;;;;4420426;32;20029;-75
2021/06/11 02:56:06;;;;;;;11.95;9.40;;;;;;;;;;4430655;32;20288;-74
2021/06/11 02:59:05;;;;;;;9.43;8.48;;;;;;;;;;4431153;32;20078;-75
2021/06/11 03:01:35;;;;;;;10.70;8.20;;;;;;;;;;4393365;32;20124;-74
2021/06/11 03:04:02;;;;;;;10.43;8.32;;;;;;;;;;4418610;32;20396;-75
2021/06/11 03:06:29;;;;;;;9.43;8.52;;;;;;;;;;4423140;32;20045;-74
2021/06/11 03:08:57;;;;;;;10.93;8.70;;;;;;;;;;4424605;32;20043;-73
2021/06/11 03:11:37;;;;;;;9.32;8.43;;;;;;;;;;4423841;32;20068;-74
2021/06/11 03:14:04;;;;;;;9.18;8.15;;;;;;;;;;4425902;32;20472;-74
2021/06/11 03:16:31;;;;;;;10.27;8.38;;;;;;;;;;4424611;32;20129;-74
2021/06/11 03:19:00;;;;;;;8.30;7.45;;;;;;;;;;4423015;32;20073;-74
2021/06/11 03:21:28;;;;;;;9.07;8.18;;;;;;;;;;4425257;32;20517;-74
2021/06/11 03:23:59;;;;;;;11.57;8.82;;;;;;;;;;4422182;32;20064;-74
2021/06/11 03:26:29;;;;;;;13.38;8.82;;;;;;;;;;4423348;32;20037;-74
2021/06/11 03:28:57;;;;;;;10.32;9.05;;;;;;;;;;4423082;32;20042;-74
2021/06/11 03:31:29;;;;;;;9.45;8.50;;;;;;;;;;4424848;32;20038;-74
2021/06/11 03:33:58;;;;;;;10.55;8.68;;;;;;;;;;4425070;32;20067;-74
2021/06/11 03:36:38;;;;;;;10.13;8.50;;;;;;;;;;4425690;32;20037;-73
2021/06/11 03:39:08;;;;;;;11.10;8.75;;;;;;;;;;4427880;32;20062;-74
2021/06/11 03:41:35;;;;;;;8.85;7.95;;;;;;;;;;4427702;32;20060;-74
2021/06/11 03:44:03;;;;;;;9.60;8.00;;;;;;;;;;4427416;32;20679;-74
2021/06/11 03:46:31;;;;;;;8.43;7.28;;;;;;;;;;4427402;32;20079;-74
2021/06/11 03:48:58;;;;;;;11.30;8.65;;;;;;;;;;4427302;32;20064;-74
2021/06/11 03:51:26;;;;;;;9.10;8.23;;;;;;;;;;4427044;32;20037;-75
2021/06/11 03:53:52;;;;;;;9.77;8.73;;;;;;;;;;4423282;32;20041;-73
2021/06/11 03:56:19;;;;;;;12.18;8.80;;;;;;;;;;4437046;32;20094;-74
2021/06/11 03:58:46;;;;;;;10.52;9.07;;;;;;;;;;4440484;32;20033;-74
2021/06/11 04:01:18;;;;;;;10.00;9.10;;;;;;;;;;4439778;32;20060;-74
2021/06/11 04:03:44;;;;;;;10.45;8.80;;;;;;;;;;4422900;32;20063;-74
2021/06/11 04:06:15;;;;;;;9.50;8.52;;;;;;;;;;4440975;32;20539;-73
2021/06/11 04:08:41;;;;;;;10.55;8.70;;;;;;;;;;4440021;32;20085;-74
2021/06/11 04:11:11;;;;;;;9.30;8.40;;;;;;;;;;4441239;32;20064;-75
2021/06/11 04:13:40;;;;;;;11.90;9.82;;;;;;;;;;4439917;32;20470;-74
2021/06/11 04:16:08;;;;;;;12.10;9.50;;;;;;;;;;4441716;32;20063;-73
2021/06/11 04:18:34;;;;;;;10.13;8.77;;;;;;;;;;4440137;32;20696;-74
2021/06/11 04:21:01;;;;;;;11.12;8.75;;;;;;;;;;4439740;32;20041;-74
2021/06/11 04:23:30;;;;;;;12.37;8.70;;;;;;;;;;4440413;32;20072;-74
2021/06/11 04:25:58;;;;;;;14.30;9.85;;;;;;;;;;4442408;32;20384;-74
2021/06/11 04:28:24;;;;;;;12.13;8.55;;;;;;;;;;4432843;32;20045;-74
2021/06/11 04:30:51;;;;;;;12.50;9.00;;;;;;;;;;4427554;32;20056;-74
2021/06/11 04:33:21;;;;;;;11.27;8.68;;;;;;;;;;4425139;32;20042;-74
2021/06/11 04:35:47;;;;;;;10.07;8.57;;;;;;;;;;4425740;32;20077;-74
2021/06/11 04:38:14;;;;;;;16.05;10.50;;;;;;;;;;4427620;32;20060;-74
2021/06/11 04:40:40;;;;;;;10.00;8.65;;;;;;;;;;4426163;32;20060;-74
2021/06/11 04:43:07;;;;;;;12.75;10.57;;;;;;;;;;4426373;32;20434;-74
2021/06/11 04:45:33;;;;;;;12.68;10.50;;;;;;;;;;4427415;32;20123;-74
2021/06/11 04:47:59;;;;;;;12.63;10.45;;;;;;;;;;4424182;32;20672;-74
2021/06/11 04:50:28;;;;;;;11.05;10.05;;;;;;;;;;4427846;32;20067;-74
2021/06/11 04:52:55;;;;;;;14.27;12.05;;;;;;;;;;4426474;32;20106;-74
2021/06/11 04:55:21;;;;;;;16.17;13.02;;;;;;;;;;4426506;32;20061;-76
2021/06/11 04:57:50;;;;;;;18.80;13.75;;;;;;;;;;4425057;32;20879;-76
2021/06/11 05:00:16;;;;;;;16.48;14.82;;;;;;;;;;4427350;32;20157;-76
2021/06/11 05:02:42;;;;;;;16.80;13.73;;;;;;;;;;4428088;32;20057;-76
2021/06/11 05:05:09;;;;;;;17.95;14.60;;;;;;;;;;4427782;32;20623;-77
2021/06/11 05:07:36;;;;;;;18.48;15.00;;;;;;;;;;4426424;32;20057;-76
2021/06/11 05:10:03;;;;;;;21.77;17.20;;;;;;;;;;4426951;32;20041;-76
2021/06/11 05:12:29;;;;;;;20.00;15.02;;;;;;;;;;4426238;32;20076;-76
2021/06/11 05:14:55;;;;;;;19.55;14.52;;;;;;;;;;4427875;32;20778;-76
2021/06/11 05:17:21;;;;;;;16.27;14.20;;;;;;;;;;4423967;32;20080;-76
2021/06/11 05:19:47;;;;;;;15.75;13.88;;;;;;;;;;4426111;32;20100;-76
2021/06/11 05:22:14;;;;;;;14.75;11.63;;;;;;;;;;4427743;32;20410;-76
2021/06/11 05:24:41;;;;;;;14.23;11.52;;;;;;;;;;4424922;32;20425;-76
2021/06/11 05:27:07;;;;;;;14.02;12.15;;;;;;;;;;4424355;32;20421;-76
2021/06/11 05:29:34;;;;;;;14.77;11.05;;;;;;;;;;4426860;32;20033;-76
2021/06/11 05:32:00;;;;;;;11.63;9.80;;;;;;;;;;4426754;32;20046;-76
2021/06/11 05:34:26;;;;;;;12.45;8.73;;;;;;;;;;4427146;32;20095;-76
2021/06/11 05:36:52;;;;;;;12.93;8.63;;;;;;;;;;4425545;32;20060;-76
2021/06/11 05:39:18;;;;;;;9.70;8.35;;;;;;;;;;4424648;32;20033;-79
2021/06/11 05:41:45;;;;;;;8.15;7.35;;;;;;;;;;4426619;32;20029;-75
2021/06/11 05:44:11;;;;;;;8.50;7.07;;;;;;;;;;4426744;32;20046;-75
2021/06/11 05:46:37;;;;;;;9.18;6.72;;;;;;;;;;4425462;32;20098;-77
2021/06/11 05:49:03;;;;;;;10.02;8.48;;;;;;;;;;4426734;32;20487;-77
2021/06/11 05:51:29;;;;;;;8.73;7.82;;;;;;;;;;4426287;32;20037;-76
2021/06/11 05:53:56;;;;;;;9.05;7.72;;;;;;;;;;4425497;32;20054;-76
2021/06/11 05:56:22;;;;;;;10.63;9.57;;;;;;;;;;4425600;32;20421;-78
2021/06/11 05:58:48;;;;;;;8.43;7.70;;;;;;;;;;4425963;32;20080;-78
2021/06/11 06:01:14;;;;;;;9.57;8.60;;;;;;;;;;4425320;32;20064;-78
2021/06/11 06:03:40;;;;;;;12.20;10.48;;;;;;;;;;4437793;32;20060;-78
2021/06/11 06:06:06;;;;;;;12.80;9.45;;;;;;;;;;4435188;32;20045;-77
2021/06/11 06:08:33;;;;;;;9.77;8.82;;;;;;;;;;4433304;32;20624;-77
2021/06/11 06:10:59;;;;;;;11.90;8.98;;;;;;;;;;4426897;32;20710;-76
2021/06/11 06:13:25;;;;;;;10.15;9.05;;;;;;;;;;4426938;32;20045;-77
2021/06/11 06:15:54;;;;;;;10.82;9.48;;;;;;;;;;4425532;32;20104;-77
2021/06/11 06:18:20;;;;;;;11.10;9.70;;;;;;;;;;4408814;32;20038;-77
2021/06/11 06:20:46;;;;;;;10.30;9.30;;;;;;;;;;4414846;32;20038;-77
2021/06/11 06:23:13;;;;;;;13.25;10.40;;;;;;;;;;4425395;32;20049;-76
2021/06/11 06:25:39;;;;;;;9.25;8.18;;;;;;;;;;4427089;32;20706;-77
2021/06/11 06:28:05;;;;;;;11.75;10.57;;;;;;;;;;4425719;32;20042;-78
2021/06/11 06:30:32;;;;;;;14.70;9.38;;;;;;;;;;4409988;32;20108;-79
2021/06/11 06:32:58;;;;;;;13.68;10.82;;;;;;;;;;4407692;32;20103;-79
2021/06/11 06:35:24;;;;;;;11.18;10.07;;;;;;;;;;4419989;32;20488;-80
2021/06/11 06:37:50;;;;;;;11.70;9.95;;;;;;;;;;4422021;32;20030;-78
2021/06/11 06:40:17;;;;;;;15.55;11.80;;;;;;;;;;4420060;32;20500;-77
2021/06/11 06:42:44;;;;;;;13.70;11.65;;;;;;;;;;4415802;32;20626;-77
2021/06/11 06:45:14;;;;;;;14.13;10.85;;;;;;;;;;4410045;32;20088;-77
2021/06/11 06:47:45;;;;;;;14.73;11.05;;;;;;;;;;4412453;32;20042;-81
2021/06/11 06:50:18;;;;;;;11.38;10.02;;;;;;;;;;4411895;32;20034;-78
2021/06/11 06:52:45;;;;;;;11.90;9.32;;;;;;;;;;4419669;32;20086;-77
2021/06/11 06:55:12;;;;;;;11.88;10.57;;;;;;;;;;4414509;32;20430;-78
2021/06/11 06:57:38;;;;;;;10.85;9.73;;;;;;;;;;4413286;32;20337;-78
2021/06/11 07:00:05;;;;;;;15.75;11.00;;;;;;;;;;4416129;32;20034;-78
2021/06/11 07:02:31;;;;;;;13.30;10.13;;;;;;;;;;4421748;32;20683;-77
2021/06/11 07:04:57;;;;;;;12.82;11.52;;;;;;;;;;4423132;32;20061;-77
2021/06/11 07:07:24;;;;;;;10.35;9.43;;;;;;;;;;4425498;32;20079;-78
2021/06/11 07:09:50;;;;;;;10.90;9.80;;;;;;;;;;4422558;32;20093;-77
2021/06/11 07:12:16;;;;;;;16.77;11.90;;;;;;;;;;4421644;32;20653;-83
2021/06/11 07:14:42;;;;;;;13.68;10.98;;;;;;;;;;4421283;32;20042;-78
2021/06/11 07:17:08;;;;;;;16.35;11.18;;;;;;;;;;4423483;32;20563;-78
2021/06/11 07:19:34;;;;;;;15.23;12.00;;;;;;;;;;4410833;32;20060;-80
2021/06/11 07:22:03;;;;;;;12.20;11.00;;;;;;;;;;4425250;32;20038;-79
2021/06/11 07:24:31;;;;;;;11.60;10.40;;;;;;;;;;4412413;32;20037;-78
2021/06/11 07:26:58;;;;;;;10.73;9.25;;;;;;;;;;4429793;32;20112;-78
2021/06/11 07:29:24;;;;;;;11.73;10.32;;;;;;;;;;4414672;32;20105;-78
2021/06/11 07:31:50;;;;;;;11.00;8.88;;;;;;;;;;4414174;32;20038;-78
2021/06/11 07:34:16;;;;;;;14.65;11.27;;;;;;;;;;4417895;32;20465;-77
2021/06/11 07:36:42;;;;;;;11.45;10.23;;;;;;;;;;4423696;32;20037;-78
2021/06/11 07:39:09;;;;;;;10.68;9.63;;;;;;;;;;4422407;32;20072;-78
2021/06/11 07:41:35;;;;;;;12.73;10.07;;;;;;;;;;4426646;32;20038;-77
2021/06/11 07:44:01;;;;;;;11.88;9.10;;;;;;;;;;4411203;32;20113;-78
2021/06/11 07:46:27;;;;;;;9.43;8.52;;;;;;;;;;4422585;32;20760;-77
2021/06/11 07:48:53;;;;;;;13.13;10.25;;;;;;;;;;4420752;32;20033;-78
2021/06/11 07:51:21;;;;;;;12.43;9.13;;;;;;;;;;4423644;32;20029;-77
2021/06/11 07:53:47;;;;;;;10.45;9.25;;;;;;;;;;4422348;32;20680;-77
2021/06/11 07:56:13;;;;;;;10.18;8.30;;;;;;;;;;4422585;32;20042;-78
2021/06/11 07:58:39;;;;;;;10.85;9.18;;;;;;;;;;4423486;32;20460;-77
2021/06/11 08:01:06;;;;;;;11.75;9.18;;;;;;;;;;4425224;32;20445;-77
2021/06/11 08:03:32;;;;;;;10.80;9.40;;;;;;;;;;4426155;32;20506;-78
2021/06/11 08:05:58;;;;;;;15.20;9.65;;;;;;;;;;4423180;32;20056;-78
2021/06/11 08:08:57;;;;;;;;;;;;;;;;;;;;;
2021/06/11 08:14:16;;;;;;;9.90;7.78;;;;;;;;;;4413637;32;20074;-76
2021/06/11 08:16:42;;;;;;;14.55;9.40;;;;;;;;;;4422089;32;20114;-74
2021/06/11 08:19:09;;;;;;;10.30;8.07;;;;;;;;;;4418289;32;20659;-76
2021/06/11 08:21:35;;;;;;;10.10;9.07;;;;;;;;;;4423550;32;20041;-75
2021/06/11 08:24:01;;;;;;;10.25;8.68;;;;;;;;;;4425030;32;20029;-76
2021/06/11 08:26:27;;;;;;;8.25;7.45;;;;;;;;;;4424062;32;20082;-76
2021/06/11 08:28:53;;;;;;;11.82;9.55;;;;;;;;;;4423376;32;20065;-76
2021/06/11 08:31:20;;;;;;;11.73;8.75;;;;;;;;;;4426251;32;20488;-76
2021/06/11 08:33:47;;;;;;;8.93;7.85;;;;;;;;;;4430475;32;20065;-77
2021/06/11 08:36:13;;;;;;;10.77;8.85;;;;;;;;;;4424186;32;20097;-76
2021/06/11 08:38:39;;;;;;;10.05;8.63;;;;;;;;;;4424091;32;20033;-77
2021/06/11 08:41:09;;;;;;;8.48;7.65;;;;;;;;;;4435907;32;20429;-76
2021/06/11 08:43:35;;;;;;;8.15;7.45;;;;;;;;;;4439162;32;20038;-78
2021/06/11 08:46:02;;;;;;;9.75;8.38;;;;;;;;;;4436560;32;20183;-75
2021/06/11 08:48:28;;;;;;;9.05;8.15;;;;;;;;;;4439507;32;20090;-75
2021/06/11 08:50:54;;;;;;;9.40;8.30;;;;;;;;;;4426696;32;20046;-76
2021/06/11 08:53:21;;;;;;;9.32;8.52;;;;;;;;;;4428189;32;20075;-76
2021/06/11 08:55:48;;;;;;;11.90;9.70;;;;;;;;;;4426513;32;20090;-76
2021/06/11 08:58:14;;;;;;;11.32;9.60;;;;;;;;;;4425042;32;20065;-76
2021/06/11 09:00:42;;;;;;;10.68;8.90;;;;;;;;;;4426886;32;20030;-76
2021/06/11 09:03:12;;;;;;;13.62;11.27;;;;;;;;;;4427499;32;20330;-77
2021/06/11 09:05:57;;;;;;;14.10;11.02;;;;;;;;;;4426663;32;21014;-76
2021/06/11 09:08:24;;;;;;;12.45;9.57;;;;;;;;;;4429905;32;20042;-76
2021/06/11 09:10:52;;;;;;;8.95;8.05;;;;;;;;;;4428061;32;20100;-76
2021/06/11 09:13:36;;;;;;;16.48;8.73;;;;;;;;;;4426306;32;20309;-76
2021/06/11 09:16:21;;;;;;;9.13;8.23;;;;;;;;;;4425319;32;20029;-76
2021/06/11 09:18:49;;;;;;;9.27;8.38;;;;;;;;;;4426394;32;20508;-76
2021/06/11 09:21:30;;;;;;;12.25;9.68;;;;;;;;;;4426039;32;20030;-77
2021/06/11 09:24:25;;;;;;;12.32;9.32;;;;;;;;;;4426542;32;20311;-76
2021/06/11 09:26:57;;;;;;;10.75;9.13;;;;;;;;;;4423683;32;20026;-76
2021/06/11 09:29:44;;;;;;;10.50;9.38;;;;;;;;;;4424637;32;20136;-76
2021/06/11 09:32:10;;;;;;;9.75;8.70;;;;;;;;;;4424065;32;20586;-76
2021/06/11 09:34:36;;;;;;;11.23;9.30;;;;;;;;;;4424176;32;20451;-76
2021/06/11 09:37:04;;;;;;;10.13;9.13;;;;;;;;;;4424333;32;20045;-76
2021/06/11 09:39:40;;;;;;;11.20;10.00;;;;;;;;;;4424679;32;20127;-76
2021/06/11 09:42:07;;;;;;;11.00;9.68;;;;;;;;;;4426203;32;20090;-76
2021/06/11 09:44:33;;;;;;;9.30;8.40;;;;;;;;;;4425514;32;20491;-75
2021/06/11 09:46:59;;;;;;;11.68;8.80;;;;;;;;;;4425618;32;20038;-76
2021/06/11 09:49:28;;;;;;;11.60;8.65;;;;;;;;;;4425711;32;20095;-79
2021/06/11 09:52:07;;;;;;;9.50;8.23;;;;;;;;;;4422727;32;20254;-76
2021/06/11 09:54:34;;;;;;;10.20;9.20;;;;;;;;;;4424742;32;20046;-76
2021/06/11 09:57:19;;;;;;;10.13;9.13;;;;;;;;;;4427102;32;20054;-76
2021/06/11 09:59:45;;;;;;;10.98;9.45;;;;;;;;;;4425449;32;20471;-76
2021/06/11 10:02:15;;;;;;;9.90;8.60;;;;;;;;;;4425197;32;20094;-77
2021/06/11 10:04:42;;;;;;;9.80;8.75;;;;;;;;;;4425192;32;20037;-77
2021/06/11 10:07:10;;;;;;;11.57;8.85;;;;;;;;;;4424067;32;20064;-76
2021/06/11 10:09:37;;;;;;;8.90;8.00;;;;;;;;;;4423117;32;20365;-76
2021/06/11 10:12:03;;;;;;;9.43;8.27;;;;;;;;;;4425726;32;20042;-75
2021/06/11 10:14:30;;;;;;;10.43;7.75;;;;;;;;;;4427307;32;20148;-76
2021/06/11 10:16:56;;;;;;;8.05;7.30;;;;;;;;;;4424586;32;20092;-74
2021/06/11 10:19:31;;;;;;;10.77;7.65;;;;;;;;;;4421880;32;20077;-88
2021/06/11 10:22:28;;;;;;;10.95;7.65;;;;;;;;;;4420781;32;20424;-81
2021/06/11 10:24:57;;;;;;;9.20;7.60;;;;;;;;;;4423483;32;20175;-85
2021/06/11 10:27:23;;;;;;;9.45;6.90;;;;;;;;;;4419695;32;20188;-83
2021/06/11 10:29:49;;;;;;;9.50;7.60;;;;;;;;;;4419945;32;20089;-82
2021/06/11 10:32:17;;;;;;;8.30;7.10;;;;;;;;;;4412024;32;20065;-84
2021/06/11 10:34:50;;;;;;;9.18;7.03;;;;;;;;;;4425294;32;20045;-84
2021/06/11 10:37:52;;;;;;;8.02;7.05;;;;;;;;;;4422181;32;20075;-83
2021/06/11 10:40:25;;;;;;;9.07;7.97;;;;;;;;;;4367310;32;20074;-81
2021/06/11 10:42:52;;;;;;;8.90;7.07;;;;;;;;;;4417334;32;20041;-81
2021/06/11 10:46:05;;;;;;;8.18;7.37;;;;;;;;;;4412634;32;20074;-84
2021/06/11 10:48:54;;;;;;;8.80;7.90;;;;;;;;;;4371644;32;20108;-83
2021/06/11 10:51:34;;;;;;;12.80;8.98;;;;;;;;;;4409370;32;20072;-83
2021/06/11 10:54:19;;;;;;;10.70;6.80;;;;;;;;;;4430846;32;20059;-85
2021/06/11 10:57:52;;;;;;;8.20;7.40;;;;;;;;;;4435330;32;20071;-83
2021/06/11 11:00:07;;;;;;;10.02;7.87;;;;;;;;;;4416611;32;20072;-90
2021/06/11 11:03:12;;;;;;;7.97;7.07;;;;;;;;;;4434284;32;20074;-83
2021/06/11 11:06:00;;;;;;;8.48;7.68;;;;;;;;;;4355348;32;20046;-86
2021/06/11 11:08:44;;;;;;;7.37;6.57;;;;;;;;;;4354067;32;20129;-84
2021/06/11 11:11:27;;;;;;;7.85;7.05;;;;;;;;;;4408968;32;20060;-81
2021/06/11 11:13:55;;;;;;;9.90;7.40;;;;;;;;;;4435449;32;20468;-88
2021/06/11 11:16:52;;;;;;;;;;;;;;;;;;;;;
2021/06/11 11:19:38;;;;;;;7.55;6.72;;;;;;;;;;4398529;32;20057;-86
2021/06/11 11:22:31;;;;;;;7.10;6.40;;;;;;;;;;4417411;32;20132;-86
2021/06/11 11:25:36;;;;;;;;;;;;;;;;;;;;;
2021/06/11 11:28:03;;;;;;;8.73;6.75;;;;;;;;;;4408671;32;20091;-79
2021/06/11 11:30:30;;;;;;;8.02;6.57;;;;;;;;;;4415465;32;20081;-78
2021/06/11 11:32:57;;;;;;;9.77;6.53;;;;;;;;;;4427010;32;20094;-79
2021/06/11 11:35:26;;;;;;;11.75;6.57;;;;;;;;;;4430170;32;20037;-79
2021/06/11 11:37:53;;;;;;;7.62;6.65;;;;;;;;;;4432696;32;20037;-79
2021/06/11 11:40:21;;;;;;;8.20;6.72;;;;;;;;;;4437712;32;20078;-80
2021/06/11 11:42:47;;;;;;;7.50;6.72;;;;;;;;;;4427561;32;20041;-79
2021/06/11 11:45:13;;;;;;;9.13;6.97;;;;;;;;;;4425501;32;20100;-79
2021/06/11 11:47:41;;;;;;;8.20;6.18;;;;;;;;;;4435685;32;20061;-79
2021/06/11 11:50:08;;;;;;;7.00;6.28;;;;;;;;;;4435872;32;20057;-80
2021/06/11 11:52:35;;;;;;;6.47;5.82;;;;;;;;;;4423912;32;20030;-78
2021/06/11 11:55:01;;;;;;;6.53;5.85;;;;;;;;;;4434493;32;20045;-79
2021/06/11 11:57:28;;;;;;;6.95;6.25;;;;;;;;;;4430322;32;20091;-78
2021/06/11 11:59:54;;;;;;;7.15;6.43;;;;;;;;;;4436364;32;20061;-80
2021/06/11 12:02:20;;;;;;;7.05;6.32;;;;;;;;;;4440205;32;20117;-79
2021/06/11 12:04:47;;;;;;;9.13;7.22;;;;;;;;;;4429195;32;20087;-78
2021/06/11 12:07:13;;;;;;;7.82;6.28;;;;;;;;;;4429525;32;20388;-78
2021/06/11 12:09:39;;;;;;;7.97;6.03;;;;;;;;;;4429620;32;20481;-78
2021/06/11 12:12:06;;;;;;;8.20;6.20;;;;;;;;;;4423139;32;20400;-79
2021/06/11 12:14:32;;;;;;;11.32;7.22;;;;;;;;;;4412435;32;20037;-79
2021/06/11 12:16:59;;;;;;;8.00;6.37;;;;;;;;;;4412978;32;20479;-79
2021/06/11 12:19:25;;;;;;;7.90;6.18;;;;;;;;;;4422009;32;20087;-78
2021/06/11 12:21:51;;;;;;;7.53;6.15;;;;;;;;;;4427043;32;20087;-78
2021/06/11 12:24:17;;;;;;;6.75;6.12;;;;;;;;;;4424944;32;20030;-78
2021/06/11 12:26:45;;;;;;;6.25;5.65;;;;;;;;;;4426073;32;20029;-79
2021/06/11 12:29:13;;;;;;;7.57;6.78;;;;;;;;;;4426987;32;20104;-78
2021/06/11 12:31:39;;;;;;;6.68;5.97;;;;;;;;;;4425653;32;20362;-78
2021/06/11 12:34:05;;;;;;;9.50;6.30;;;;;;;;;;4424279;32;20117;-79
2021/06/11 12:36:32;;;;;;;6.97;6.05;;;;;;;;;;4427635;32;20050;-83
2021/06/11 12:38:58;;;;;;;8.82;6.10;;;;;;;;;;4421788;32;20154;-78
2021/06/11 12:41:24;;;;;;;7.90;6.70;;;;;;;;;;4411034;32;20552;-78
2021/06/11 12:46:35;;;;;;;7.62;6.60;;;;;;;;;;4427636;32;20068;-79
2021/06/11 12:49:02;;;;;;;6.50;5.90;;;;;;;;;;4428014;32;20888;-91
2021/06/11 12:51:31;;;;;;;6.72;6.00;;;;;;;;;;4427696;32;20068;-78
2021/06/11 12:53:57;;;;;;;7.15;6.03;;;;;;;;;;4425385;32;20080;-82
2021/06/11 12:56:23;;;;;;;6.37;5.78;;;;;;;;;;4424941;32;20072;-80
2021/06/11 12:58:49;;;;;;;6.10;5.50;;;;;;;;;;4410067;32;20046;-86
2021/06/11 13:01:16;;;;;;;9.93;6.43;;;;;;;;;;4413904;32;20102;-82
2021/06/11 13:03:42;;;;;;;6.40;5.80;;;;;;;;;;4422298;32;20148;-85
2021/06/11 13:06:08;;;;;;;10.43;6.75;;;;;;;;;;4419324;32;20134;-78
2021/06/11 13:08:35;;;;;;;6.60;6.00;;;;;;;;;;4417400;32;20140;-78
2021/06/11 13:11:01;;;;;;;7.78;6.57;;;;;;;;;;4422088;32;20093;-79
2021/06/11 13:13:27;;;;;;;6.75;6.12;;;;;;;;;;4415885;32;20134;-78
2021/06/11 13:15:54;;;;;;;6.40;5.72;;;;;;;;;;4414078;32;20067;-79
2021/06/11 13:18:20;;;;;;;7.47;6.05;;;;;;;;;;4411681;32;20029;-80
2021/06/11 13:20:46;;;;;;;6.40;5.80;;;;;;;;;;4419040;32;20539;-79
2021/06/11 13:23:12;;;;;;;7.03;5.93;;;;;;;;;;4425190;32;20097;-79
2021/06/11 13:25:39;;;;;;;8.77;6.60;;;;;;;;;;4423865;32;20132;-80
2021/06/11 13:28:05;;;;;;;6.37;5.78;;;;;;;;;;4430433;32;20813;-78
2021/06/11 13:30:32;;;;;;;6.97;6.28;;;;;;;;;;4423053;32;20081;-78
2021/06/11 13:32:58;;;;;;;6.93;6.18;;;;;;;;;;4422035;32;20270;-79
2021/06/11 13:35:25;;;;;;;5.90;5.30;;;;;;;;;;4424704;32;20033;-78
2021/06/11 13:37:51;;;;;;;6.47;5.87;;;;;;;;;;4425730;32;20935;-79
2021/06/11 13:40:17;;;;;;;6.95;5.97;;;;;;;;;;4425030;32;20030;-78
2021/06/11 13:42:44;;;;;;;6.45;5.30;;;;;;;;;;4426056;32;20098;-79
2021/06/11 13:45:11;;;;;;;8.43;5.78;;;;;;;;;;4425796;32;20070;-79
2021/06/11 13:47:46;;;;;;;6.53;5.93;;;;;;;;;;4424885;32;20030;-78
2021/06/11 13:50:14;;;;;;;6.75;5.53;;;;;;;;;;4425807;32;20038;-79
2021/06/11 13:52:40;;;;;;;5.57;5.00;;;;;;;;;;4425290;32;20113;-79
2021/06/11 13:55:07;;;;;;;5.90;5.30;;;;;;;;;;4418244;32;20063;-78
2021/06/11 13:57:33;;;;;;;5.85;5.22;;;;;;;;;;4417611;32;20038;-81
2021/06/11 14:00:00;;;;;;;5.65;5.00;;;;;;;;;;4419641;32;21521;-79
2021/06/11 14:02:27;;;;;;;6.45;5.93;;;;;;;;;;4418527;32;20397;-85
2021/06/11 14:04:53;;;;;;;7.18;5.93;;;;;;;;;;4423879;32;20941;-87
2021/06/11 14:07:19;;;;;;;10.13;5.72;;;;;;;;;;4424209;32;20029;-84
2021/06/11 14:09:45;;;;;;;6.05;5.45;;;;;;;;;;4426957;32;20064;-80
2021/06/11 14:12:11;;;;;;;8.32;5.32;;;;;;;;;;4417411;32;20103;-80
2021/06/11 14:14:39;;;;;;;6.68;6.00;;;;;;;;;;4420003;32;20091;-78
2021/06/11 14:17:05;;;;;;;5.30;4.90;;;;;;;;;;4415309;32;20116;-77
2021/06/11 14:19:31;;;;;;;6.47;5.95;;;;;;;;;;4420823;32;20091;-81
2021/06/11 14:21:58;;;;;;;11.35;6.10;;;;;;;;;;4421678;32;20021;-85
2021/06/11 14:24:24;;;;;;;6.03;5.53;;;;;;;;;;4423016;32;20119;-77
2021/06/11 14:26:50;;;;;;;6.87;5.40;;;;;;;;;;4419786;32;20140;-78
2021/06/11 14:29:16;;;;;;;5.82;5.28;;;;;;;;;;4420855;32;20477;-77
2021/06/11 14:31:42;;;;;;;6.18;5.22;;;;;;;;;;4423650;32;20030;-77
2021/06/11 14:34:09;;;;;;;6.15;5.60;;;;;;;;;;4424884;32;20111;-77
2021/06/11 14:36:38;;;;;;;6.80;5.87;;;;;;;;;;4417191;32;20384;-82
2021/06/11 14:39:04;;;;;;;6.60;5.97;;;;;;;;;;4419018;32;20060;-82
2021/06/11 14:41:30;;;;;;;6.40;5.75;;;;;;;;;;4420182;32;20056;-80
2021/06/11 14:43:57;;;;;;;5.87;5.37;;;;;;;;;;4419728;32;20086;-82
2021/06/11 14:46:23;;;;;;;7.40;6.10;;;;;;;;;;4419521;32;20106;-82
2021/06/11 14:48:49;;;;;;;10.05;5.75;;;;;;;;;;4418357;32;20095;-83
2021/06/11 14:51:16;;;;;;;11.90;5.68;;;;;;;;;;4423603;32;20056;-81